sensor_id;sensor_type;location;lat;lon;timestamp;P1;durP1;ratioP1;P2;durP2;ratioP2
71896;SDS011;59767;51.344;12.362;2023-07-22T00:01:49;7.50;;;3.20;;
71896;SDS011;59767;51.344;12.362;2023-07-22T00:04:53;10.77;;;3.10;;
71896;SDS011;59767;51.344;12.362;2023-07-22T00:07:58;14.95;;;3.47;;
71896;SDS011;59767;51.344;12.362;2023-07-22T00:11:01;9.82;;;3.63;;
71896;SDS011;59767;51.344;12.362;2023-07-22T00:14:06;8.38;;;3.53;;
71896;SDS011;59767;51.344;12.362;2023-07-22T00:17:10;10.05;;;3.53;;
71896;SDS011;59767;51.344;12.362;2023-07-22T00:20:14;11.45;;;3.40;;
71896;SDS011;59767;51.344;12.362;2023-07-22T00:23:19;9.57;;;3.75;;
71896;SDS011;59767;51.344;12.362;2023-07-22T00:26:23;8.82;;;3.70;;
71896;SDS011;59767;51.344;12.362;2023-07-22T00:29:28;10.35;;;3.70;;
71896;SDS011;59767;51.344;12.362;2023-07-22T00:32:32;8.73;;;3.90;;
71896;SDS011;59767;51.344;12.362;2023-07-22T00:35:37;11.15;;;3.90;;
71896;SDS011;59767;51.344;12.362;2023-07-22T00:38:41;7.47;;;3.70;;
71896;SDS011;59767;51.344;12.362;2023-07-22T00:41:45;11.10;;;3.97;;
71896;SDS011;59767;51.344;12.362;2023-07-22T00:44:49;9.00;;;3.70;;
71896;SDS011;59767;51.344;12.362;2023-07-22T00:47:53;14.27;;;4.00;;
71896;SDS011;59767;51.344;12.362;2023-07-22T00:50:58;7.15;;;3.40;;
71896;SDS011;59767;51.344;12.362;2023-07-22T00:54:02;7.47;;;3.85;;
71896;SDS011;59767;51.344;12.362;2023-07-22T00:57:09;8.13;;;3.85;;
71896;SDS011;59767;51.344;12.362;2023-07-22T01:00:13;8.68;;;3.50;;
71896;SDS011;59767;51.344;12.362;2023-07-22T01:03:19;11.63;;;3.65;;
71896;SDS011;59767;51.344;12.362;2023-07-22T01:06:24;8.68;;;3.70;;
71896;SDS011;59767;51.344;12.362;2023-07-22T01:09:34;8.30;;;3.70;;
71896;SDS011;59767;51.344;12.362;2023-07-22T01:12:39;7.65;;;4.03;;
71896;SDS011;59767;51.344;12.362;2023-07-22T01:15:44;10.65;;;4.25;;
71896;SDS011;59767;51.344;12.362;2023-07-22T01:18:48;10.60;;;3.90;;
71896;SDS011;59767;51.344;12.362;2023-07-22T01:21:52;16.75;;;4.05;;
71896;SDS011;59767;51.344;12.362;2023-07-22T01:24:57;10.65;;;4.03;;
71896;SDS011;59767;51.344;12.362;2023-07-22T01:28:02;9.02;;;3.92;;
71896;SDS011;59767;51.344;12.362;2023-07-22T01:31:10;8.75;;;3.88;;
71896;SDS011;59767;51.344;12.362;2023-07-22T01:34:14;7.88;;;4.10;;
71896;SDS011;59767;51.344;12.362;2023-07-22T01:37:18;10.07;;;4.68;;
71896;SDS011;59767;51.344;12.362;2023-07-22T01:40:24;13.27;;;4.60;;
71896;SDS011;59767;51.344;12.362;2023-07-22T01:43:29;8.10;;;4.70;;
71896;SDS011;59767;51.344;12.362;2023-07-22T01:46:33;13.45;;;5.05;;
71896;SDS011;59767;51.344;12.362;2023-07-22T01:49:37;11.90;;;4.80;;
71896;SDS011;59767;51.344;12.362;2023-07-22T01:52:42;8.52;;;5.05;;
71896;SDS011;59767;51.344;12.362;2023-07-22T01:55:46;12.15;;;5.13;;
71896;SDS011;59767;51.344;12.362;2023-07-22T01:58:50;9.57;;;5.18;;
71896;SDS011;59767;51.344;12.362;2023-07-22T02:01:54;11.10;;;5.10;;
71896;SDS011;59767;51.344;12.362;2023-07-22T02:04:59;9.10;;;5.20;;
71896;SDS011;59767;51.344;12.362;2023-07-22T02:08:03;9.70;;;4.95;;
71896;SDS011;59767;51.344;12.362;2023-07-22T02:11:08;10.75;;;5.38;;
71896;SDS011;59767;51.344;12.362;2023-07-22T02:14:12;9.50;;;4.72;;
71896;SDS011;59767;51.344;12.362;2023-07-22T02:17:16;9.27;;;5.18;;
71896;SDS011;59767;51.344;12.362;2023-07-22T02:20:21;8.60;;;5.22;;
71896;SDS011;59767;51.344;12.362;2023-07-22T02:23:25;11.73;;;5.20;;
71896;SDS011;59767;51.344;12.362;2023-07-22T02:26:29;10.85;;;4.95;;
71896;SDS011;59767;51.344;12.362;2023-07-22T02:29:33;9.98;;;5.38;;
71896;SDS011;59767;51.344;12.362;2023-07-22T02:32:38;11.07;;;5.75;;
71896;SDS011;59767;51.344;12.362;2023-07-22T02:35:44;10.82;;;5.53;;
71896;SDS011;59767;51.344;12.362;2023-07-22T02:38:48;13.13;;;5.80;;
71896;SDS011;59767;51.344;12.362;2023-07-22T02:41:53;12.85;;;5.80;;
71896;SDS011;59767;51.344;12.362;2023-07-22T02:44:57;11.68;;;5.70;;
71896;SDS011;59767;51.344;12.362;2023-07-22T02:48:01;13.00;;;5.63;;
71896;SDS011;59767;51.344;12.362;2023-07-22T02:51:05;14.30;;;5.68;;
71896;SDS011;59767;51.344;12.362;2023-07-22T02:54:11;15.18;;;5.40;;
71896;SDS011;59767;51.344;12.362;2023-07-22T02:57:15;15.93;;;5.13;;
71896;SDS011;59767;51.344;12.362;2023-07-22T03:00:19;8.02;;;5.15;;
71896;SDS011;59767;51.344;12.362;2023-07-22T03:03:27;11.20;;;4.60;;
71896;SDS011;59767;51.344;12.362;2023-07-22T03:06:31;12.23;;;4.97;;
71896;SDS011;59767;51.344;12.362;2023-07-22T03:09:35;12.65;;;5.25;;
71896;SDS011;59767;51.344;12.362;2023-07-22T03:12:39;9.30;;;4.88;;
71896;SDS011;59767;51.344;12.362;2023-07-22T03:15:44;12.80;;;5.30;;
71896;SDS011;59767;51.344;12.362;2023-07-22T03:18:48;10.20;;;5.20;;
71896;SDS011;59767;51.344;12.362;2023-07-22T03:21:53;14.18;;;5.00;;
71896;SDS011;59767;51.344;12.362;2023-07-22T03:24:57;9.55;;;5.00;;
71896;SDS011;59767;51.344;12.362;2023-07-22T03:28:05;9.75;;;4.95;;
71896;SDS011;59767;51.344;12.362;2023-07-22T03:31:10;11.98;;;5.57;;
71896;SDS011;59767;51.344;12.362;2023-07-22T03:34:14;10.98;;;4.82;;
71896;SDS011;59767;51.344;12.362;2023-07-22T03:37:18;11.45;;;5.20;;
71896;SDS011;59767;51.344;12.362;2023-07-22T03:40:24;9.00;;;4.95;;
71896;SDS011;59767;51.344;12.362;2023-07-22T03:43:33;10.68;;;4.95;;
71896;SDS011;59767;51.344;12.362;2023-07-22T03:46:38;11.77;;;5.28;;
71896;SDS011;59767;51.344;12.362;2023-07-22T03:49:42;11.10;;;4.70;;
71896;SDS011;59767;51.344;12.362;2023-07-22T03:52:46;9.18;;;4.57;;
71896;SDS011;59767;51.344;12.362;2023-07-22T03:55:51;11.13;;;5.07;;
71896;SDS011;59767;51.344;12.362;2023-07-22T03:58:55;11.63;;;5.40;;
71896;SDS011;59767;51.344;12.362;2023-07-22T04:01:59;12.82;;;5.15;;
71896;SDS011;59767;51.344;12.362;2023-07-22T04:05:04;11.20;;;5.60;;
71896;SDS011;59767;51.344;12.362;2023-07-22T04:08:09;11.98;;;5.68;;
71896;SDS011;59767;51.344;12.362;2023-07-22T04:11:13;12.80;;;5.63;;
71896;SDS011;59767;51.344;12.362;2023-07-22T04:14:18;9.68;;;5.38;;
71896;SDS011;59767;51.344;12.362;2023-07-22T04:17:22;12.50;;;5.65;;
71896;SDS011;59767;51.344;12.362;2023-07-22T04:20:26;13.77;;;5.82;;
71896;SDS011;59767;51.344;12.362;2023-07-22T04:23:30;9.82;;;6.07;;
71896;SDS011;59767;51.344;12.362;2023-07-22T04:26:37;16.15;;;5.90;;
71896;SDS011;59767;51.344;12.362;2023-07-22T04:29:41;11.07;;;5.28;;
71896;SDS011;59767;51.344;12.362;2023-07-22T04:32:48;11.95;;;5.60;;
71896;SDS011;59767;51.344;12.362;2023-07-22T04:35:54;13.13;;;6.38;;
71896;SDS011;59767;51.344;12.362;2023-07-22T04:38:59;13.98;;;5.57;;
71896;SDS011;59767;51.344;12.362;2023-07-22T04:42:03;12.18;;;5.60;;
71896;SDS011;59767;51.344;12.362;2023-07-22T04:45:08;12.55;;;5.65;;
71896;SDS011;59767;51.344;12.362;2023-07-22T04:48:14;13.30;;;5.72;;
71896;SDS011;59767;51.344;12.362;2023-07-22T04:51:19;13.63;;;5.72;;
71896;SDS011;59767;51.344;12.362;2023-07-22T04:54:23;13.43;;;6.13;;
71896;SDS011;59767;51.344;12.362;2023-07-22T04:57:27;14.38;;;6.03;;
71896;SDS011;59767;51.344;12.362;2023-07-22T05:00:32;12.32;;;6.32;;
71896;SDS011;59767;51.344;12.362;2023-07-22T05:03:37;17.10;;;6.18;;
71896;SDS011;59767;51.344;12.362;2023-07-22T05:06:41;13.10;;;6.32;;
71896;SDS011;59767;51.344;12.362;2023-07-22T05:09:45;12.13;;;5.43;;
71896;SDS011;59767;51.344;12.362;2023-07-22T05:12:49;9.73;;;5.63;;
71896;SDS011;59767;51.344;12.362;2023-07-22T05:15:53;14.25;;;6.00;;
71896;SDS011;59767;51.344;12.362;2023-07-22T05:18:57;12.82;;;5.88;;
71896;SDS011;59767;51.344;12.362;2023-07-22T05:22:02;15.13;;;6.35;;
71896;SDS011;59767;51.344;12.362;2023-07-22T05:25:06;11.80;;;5.82;;
71896;SDS011;59767;51.344;12.362;2023-07-22T05:28:11;12.05;;;6.13;;
71896;SDS011;59767;51.344;12.362;2023-07-22T05:31:15;16.45;;;6.20;;
71896;SDS011;59767;51.344;12.362;2023-07-22T05:34:20;12.25;;;6.95;;
71896;SDS011;59767;51.344;12.362;2023-07-22T05:37:25;11.13;;;6.20;;
71896;SDS011;59767;51.344;12.362;2023-07-22T05:40:29;13.30;;;6.45;;
71896;SDS011;59767;51.344;12.362;2023-07-22T05:43:34;16.38;;;6.80;;
71896;SDS011;59767;51.344;12.362;2023-07-22T05:46:38;15.45;;;6.53;;
71896;SDS011;59767;51.344;12.362;2023-07-22T05:49:42;14.38;;;6.68;;
71896;SDS011;59767;51.344;12.362;2023-07-22T05:52:46;14.52;;;6.25;;
71896;SDS011;59767;51.344;12.362;2023-07-22T05:55:51;14.88;;;6.53;;
71896;SDS011;59767;51.344;12.362;2023-07-22T05:58:56;15.13;;;6.75;;
71896;SDS011;59767;51.344;12.362;2023-07-22T06:02:00;14.80;;;6.70;;
71896;SDS011;59767;51.344;12.362;2023-07-22T06:05:05;14.70;;;6.68;;
71896;SDS011;59767;51.344;12.362;2023-07-22T06:08:09;11.55;;;6.70;;
71896;SDS011;59767;51.344;12.362;2023-07-22T06:11:13;13.15;;;6.60;;
71896;SDS011;59767;51.344;12.362;2023-07-22T06:14:17;13.23;;;7.25;;
71896;SDS011;59767;51.344;12.362;2023-07-22T06:17:21;12.77;;;6.55;;
71896;SDS011;59767;51.344;12.362;2023-07-22T06:20:25;17.55;;;6.93;;
71896;SDS011;59767;51.344;12.362;2023-07-22T06:23:29;15.25;;;6.68;;
71896;SDS011;59767;51.344;12.362;2023-07-22T06:26:34;13.73;;;7.38;;
71896;SDS011;59767;51.344;12.362;2023-07-22T06:29:38;15.55;;;6.95;;
71896;SDS011;59767;51.344;12.362;2023-07-22T06:32:42;15.82;;;6.97;;
71896;SDS011;59767;51.344;12.362;2023-07-22T06:35:46;14.32;;;7.00;;
71896;SDS011;59767;51.344;12.362;2023-07-22T06:38:55;13.80;;;7.13;;
71896;SDS011;59767;51.344;12.362;2023-07-22T06:41:59;12.80;;;7.03;;
71896;SDS011;59767;51.344;12.362;2023-07-22T06:45:03;13.60;;;7.28;;
71896;SDS011;59767;51.344;12.362;2023-07-22T06:48:08;15.55;;;7.07;;
71896;SDS011;59767;51.344;12.362;2023-07-22T06:51:12;12.30;;;6.68;;
71896;SDS011;59767;51.344;12.362;2023-07-22T06:54:17;14.98;;;6.70;;
71896;SDS011;59767;51.344;12.362;2023-07-22T06:57:21;13.00;;;6.05;;
71896;SDS011;59767;51.344;12.362;2023-07-22T07:00:25;9.75;;;5.82;;
71896;SDS011;59767;51.344;12.362;2023-07-22T07:03:29;10.50;;;5.38;;
71896;SDS011;59767;51.344;12.362;2023-07-22T07:06:34;10.57;;;5.22;;
71896;SDS011;59767;51.344;12.362;2023-07-22T07:09:38;15.07;;;5.25;;
71896;SDS011;59767;51.344;12.362;2023-07-22T07:12:43;10.63;;;5.28;;
71896;SDS011;59767;51.344;12.362;2023-07-22T07:15:47;23.42;;;5.55;;
71896;SDS011;59767;51.344;12.362;2023-07-22T07:18:52;10.93;;;4.85;;
71896;SDS011;59767;51.344;12.362;2023-07-22T07:21:58;8.77;;;4.20;;
71896;SDS011;59767;51.344;12.362;2023-07-22T07:25:02;13.30;;;4.68;;
71896;SDS011;59767;51.344;12.362;2023-07-22T07:28:06;9.38;;;4.40;;
71896;SDS011;59767;51.344;12.362;2023-07-22T07:31:10;13.68;;;5.13;;
71896;SDS011;59767;51.344;12.362;2023-07-22T07:34:14;11.90;;;4.57;;
71896;SDS011;59767;51.344;12.362;2023-07-22T07:37:19;12.85;;;4.72;;
71896;SDS011;59767;51.344;12.362;2023-07-22T07:40:23;10.05;;;4.10;;
71896;SDS011;59767;51.344;12.362;2023-07-22T07:43:27;7.72;;;3.97;;
71896;SDS011;59767;51.344;12.362;2023-07-22T07:46:31;8.60;;;4.28;;
71896;SDS011;59767;51.344;12.362;2023-07-22T07:49:36;7.97;;;3.72;;
71896;SDS011;59767;51.344;12.362;2023-07-22T07:52:40;9.43;;;3.85;;
71896;SDS011;59767;51.344;12.362;2023-07-22T07:55:45;8.00;;;3.67;;
71896;SDS011;59767;51.344;12.362;2023-07-22T07:58:49;7.00;;;3.25;;
71896;SDS011;59767;51.344;12.362;2023-07-22T08:01:54;9.57;;;3.58;;
71896;SDS011;59767;51.344;12.362;2023-07-22T08:04:58;7.88;;;3.60;;
71896;SDS011;59767;51.344;12.362;2023-07-22T08:08:02;7.32;;;3.20;;
71896;SDS011;59767;51.344;12.362;2023-07-22T08:11:08;6.25;;;3.10;;
71896;SDS011;59767;51.344;12.362;2023-07-22T08:14:12;7.90;;;3.15;;
71896;SDS011;59767;51.344;12.362;2023-07-22T08:17:17;7.32;;;3.17;;
71896;SDS011;59767;51.344;12.362;2023-07-22T08:20:21;7.90;;;3.35;;
71896;SDS011;59767;51.344;12.362;2023-07-22T08:23:26;10.18;;;3.30;;
71896;SDS011;59767;51.344;12.362;2023-07-22T08:26:30;7.88;;;3.47;;
71896;SDS011;59767;51.344;12.362;2023-07-22T08:29:34;8.57;;;3.45;;
71896;SDS011;59767;51.344;12.362;2023-07-22T08:32:39;7.32;;;3.53;;
71896;SDS011;59767;51.344;12.362;2023-07-22T08:35:43;7.97;;;3.63;;
71896;SDS011;59767;51.344;12.362;2023-07-22T08:38:47;8.10;;;4.00;;
71896;SDS011;59767;51.344;12.362;2023-07-22T08:41:51;9.30;;;4.00;;
71896;SDS011;59767;51.344;12.362;2023-07-22T08:44:58;8.50;;;3.78;;
71896;SDS011;59767;51.344;12.362;2023-07-22T08:48:05;9.60;;;3.60;;
71896;SDS011;59767;51.344;12.362;2023-07-22T08:51:15;8.35;;;3.92;;
71896;SDS011;59767;51.344;12.362;2023-07-22T08:54:21;8.10;;;3.80;;
71896;SDS011;59767;51.344;12.362;2023-07-22T08:57:28;9.68;;;3.63;;
71896;SDS011;59767;51.344;12.362;2023-07-22T09:00:34;5.72;;;3.33;;
71896;SDS011;59767;51.344;12.362;2023-07-22T09:03:38;7.55;;;3.10;;
71896;SDS011;59767;51.344;12.362;2023-07-22T09:06:44;6.15;;;3.03;;
71896;SDS011;59767;51.344;12.362;2023-07-22T09:09:49;6.55;;;2.97;;
71896;SDS011;59767;51.344;12.362;2023-07-22T09:12:53;9.25;;;3.30;;
71896;SDS011;59767;51.344;12.362;2023-07-22T09:15:58;7.68;;;3.17;;
71896;SDS011;59767;51.344;12.362;2023-07-22T09:19:03;7.35;;;3.60;;
71896;SDS011;59767;51.344;12.362;2023-07-22T09:22:08;6.63;;;3.40;;
71896;SDS011;59767;51.344;12.362;2023-07-22T09:25:14;6.32;;;3.30;;
71896;SDS011;59767;51.344;12.362;2023-07-22T09:28:19;7.93;;;2.95;;
71896;SDS011;59767;51.344;12.362;2023-07-22T09:31:25;6.38;;;3.42;;
71896;SDS011;59767;51.344;12.362;2023-07-22T09:34:30;10.55;;;3.55;;
71896;SDS011;59767;51.344;12.362;2023-07-22T09:37:38;7.40;;;3.35;;
71896;SDS011;59767;51.344;12.362;2023-07-22T09:40:42;8.35;;;3.80;;
71896;SDS011;59767;51.344;12.362;2023-07-22T09:43:47;10.63;;;3.50;;
71896;SDS011;59767;51.344;12.362;2023-07-22T09:46:52;6.78;;;3.35;;
71896;SDS011;59767;51.344;12.362;2023-07-22T09:49:56;7.10;;;3.20;;
71896;SDS011;59767;51.344;12.362;2023-07-22T09:53:00;7.38;;;3.55;;
71896;SDS011;59767;51.344;12.362;2023-07-22T09:56:07;6.82;;;2.85;;
71896;SDS011;59767;51.344;12.362;2023-07-22T09:59:12;8.73;;;3.20;;
71896;SDS011;59767;51.344;12.362;2023-07-22T10:02:17;9.23;;;2.83;;
71896;SDS011;59767;51.344;12.362;2023-07-22T10:05:25;5.28;;;2.63;;
71896;SDS011;59767;51.344;12.362;2023-07-22T10:08:30;5.85;;;2.90;;
71896;SDS011;59767;51.344;12.362;2023-07-22T10:11:42;6.75;;;2.67;;
71896;SDS011;59767;51.344;12.362;2023-07-22T10:14:46;5.65;;;2.90;;
71896;SDS011;59767;51.344;12.362;2023-07-22T10:17:52;5.43;;;2.80;;
71896;SDS011;59767;51.344;12.362;2023-07-22T10:20:58;5.95;;;3.00;;
71896;SDS011;59767;51.344;12.362;2023-07-22T10:24:03;6.70;;;3.08;;
71896;SDS011;59767;51.344;12.362;2023-07-22T10:27:07;6.57;;;3.03;;
71896;SDS011;59767;51.344;12.362;2023-07-22T10:30:13;7.85;;;2.60;;
71896;SDS011;59767;51.344;12.362;2023-07-22T10:33:18;6.95;;;3.38;;
71896;SDS011;59767;51.344;12.362;2023-07-22T10:36:22;7.32;;;2.88;;
71896;SDS011;59767;51.344;12.362;2023-07-22T10:39:33;6.60;;;3.15;;
71896;SDS011;59767;51.344;12.362;2023-07-22T10:42:37;6.40;;;3.10;;
71896;SDS011;59767;51.344;12.362;2023-07-22T10:45:42;6.72;;;2.80;;
71896;SDS011;59767;51.344;12.362;2023-07-22T10:48:47;4.82;;;2.78;;
71896;SDS011;59767;51.344;12.362;2023-07-22T10:51:51;7.05;;;2.78;;
71896;SDS011;59767;51.344;12.362;2023-07-22T10:54:56;6.05;;;3.00;;
71896;SDS011;59767;51.344;12.362;2023-07-22T10:58:04;4.85;;;2.55;;
71896;SDS011;59767;51.344;12.362;2023-07-22T11:04:35;4.50;;;2.67;;
71896;SDS011;59767;51.344;12.362;2023-07-22T11:08:02;4.65;;;2.60;;
71896;SDS011;59767;51.344;12.362;2023-07-22T11:11:08;7.50;;;2.30;;
71896;SDS011;59767;51.344;12.362;2023-07-22T11:14:31;5.32;;;2.60;;
71896;SDS011;59767;51.344;12.362;2023-07-22T11:17:41;6.50;;;2.80;;
71896;SDS011;59767;51.344;12.362;2023-07-22T11:20:45;7.18;;;2.67;;
71896;SDS011;59767;51.344;12.362;2023-07-22T11:23:50;6.55;;;2.60;;
71896;SDS011;59767;51.344;12.362;2023-07-22T11:26:54;7.40;;;2.55;;
71896;SDS011;59767;51.344;12.362;2023-07-22T11:29:59;6.38;;;2.47;;
71896;SDS011;59767;51.344;12.362;2023-07-22T11:33:08;5.75;;;2.60;;
71896;SDS011;59767;51.344;12.362;2023-07-22T11:36:12;6.97;;;2.53;;
71896;SDS011;59767;51.344;12.362;2023-07-22T11:39:20;4.97;;;2.47;;
71896;SDS011;59767;51.344;12.362;2023-07-22T11:42:26;5.85;;;2.60;;
71896;SDS011;59767;51.344;12.362;2023-07-22T11:45:30;8.13;;;2.40;;
71896;SDS011;59767;51.344;12.362;2023-07-22T11:48:35;4.57;;;2.38;;
71896;SDS011;59767;51.344;12.362;2023-07-22T11:51:41;4.30;;;2.55;;
71896;SDS011;59767;51.344;12.362;2023-07-22T11:54:46;6.78;;;2.53;;
71896;SDS011;59767;51.344;12.362;2023-07-22T11:57:54;5.93;;;2.47;;
71896;SDS011;59767;51.344;12.362;2023-07-22T12:01:10;4.95;;;2.40;;
71896;SDS011;59767;51.344;12.362;2023-07-22T12:04:14;6.00;;;2.75;;
71896;SDS011;59767;51.344;12.362;2023-07-22T12:07:26;9.70;;;3.15;;
71896;SDS011;59767;51.344;12.362;2023-07-22T12:10:31;6.05;;;2.67;;
71896;SDS011;59767;51.344;12.362;2023-07-22T12:13:36;7.68;;;2.80;;
71896;SDS011;59767;51.344;12.362;2023-07-22T12:16:41;8.35;;;2.67;;
71896;SDS011;59767;51.344;12.362;2023-07-22T12:19:52;6.15;;;2.70;;
71896;SDS011;59767;51.344;12.362;2023-07-22T12:22:59;7.53;;;2.70;;
71896;SDS011;59767;51.344;12.362;2023-07-22T12:26:07;5.75;;;3.05;;
71896;SDS011;59767;51.344;12.362;2023-07-22T12:29:11;7.95;;;3.08;;
71896;SDS011;59767;51.344;12.362;2023-07-22T12:32:15;6.30;;;3.05;;
71896;SDS011;59767;51.344;12.362;2023-07-22T12:35:19;7.13;;;2.90;;
71896;SDS011;59767;51.344;12.362;2023-07-22T12:38:23;6.60;;;2.90;;
71896;SDS011;59767;51.344;12.362;2023-07-22T12:41:28;8.75;;;2.97;;
71896;SDS011;59767;51.344;12.362;2023-07-22T12:44:32;6.65;;;3.10;;
71896;SDS011;59767;51.344;12.362;2023-07-22T12:47:36;5.25;;;2.83;;
71896;SDS011;59767;51.344;12.362;2023-07-22T12:50:41;10.32;;;3.20;;
71896;SDS011;59767;51.344;12.362;2023-07-22T12:53:45;7.20;;;3.20;;
71896;SDS011;59767;51.344;12.362;2023-07-22T12:56:50;7.88;;;3.20;;
71896;SDS011;59767;51.344;12.362;2023-07-22T12:59:53;8.18;;;3.00;;
71896;SDS011;59767;51.344;12.362;2023-07-22T13:02:57;7.15;;;3.13;;
71896;SDS011;59767;51.344;12.362;2023-07-22T13:06:01;6.43;;;2.97;;
71896;SDS011;59767;51.344;12.362;2023-07-22T13:09:06;7.15;;;3.13;;
71896;SDS011;59767;51.344;12.362;2023-07-22T13:12:10;5.65;;;2.75;;
71896;SDS011;59767;51.344;12.362;2023-07-22T13:15:14;6.35;;;2.90;;
71896;SDS011;59767;51.344;12.362;2023-07-22T13:18:18;6.03;;;2.80;;
71896;SDS011;59767;51.344;12.362;2023-07-22T13:21:22;7.10;;;3.00;;
71896;SDS011;59767;51.344;12.362;2023-07-22T13:24:27;5.95;;;3.08;;
71896;SDS011;59767;51.344;12.362;2023-07-22T13:27:31;6.47;;;3.08;;
71896;SDS011;59767;51.344;12.362;2023-07-22T13:30:36;8.77;;;3.20;;
71896;SDS011;59767;51.344;12.362;2023-07-22T13:33:39;7.07;;;2.80;;
71896;SDS011;59767;51.344;12.362;2023-07-22T13:36:44;8.32;;;3.08;;
71896;SDS011;59767;51.344;12.362;2023-07-22T13:39:48;5.70;;;2.90;;
71896;SDS011;59767;51.344;12.362;2023-07-22T13:42:52;5.63;;;2.75;;
71896;SDS011;59767;51.344;12.362;2023-07-22T13:45:56;8.13;;;3.30;;
71896;SDS011;59767;51.344;12.362;2023-07-22T13:49:00;6.22;;;3.17;;
71896;SDS011;59767;51.344;12.362;2023-07-22T13:52:04;24.95;;;6.78;;
71896;SDS011;59767;51.344;12.362;2023-07-22T13:55:09;9.27;;;3.40;;
71896;SDS011;59767;51.344;12.362;2023-07-22T13:58:14;5.90;;;3.00;;
71896;SDS011;59767;51.344;12.362;2023-07-22T14:01:18;6.75;;;2.90;;
71896;SDS011;59767;51.344;12.362;2023-07-22T14:04:23;7.70;;;3.20;;
71896;SDS011;59767;51.344;12.362;2023-07-22T14:07:27;7.45;;;3.13;;
71896;SDS011;59767;51.344;12.362;2023-07-22T14:10:31;7.60;;;3.00;;
71896;SDS011;59767;51.344;12.362;2023-07-22T14:13:36;6.28;;;2.83;;
71896;SDS011;59767;51.344;12.362;2023-07-22T14:16:40;7.40;;;2.97;;
71896;SDS011;59767;51.344;12.362;2023-07-22T14:19:45;6.00;;;3.00;;
71896;SDS011;59767;51.344;12.362;2023-07-22T14:22:49;6.50;;;3.00;;
71896;SDS011;59767;51.344;12.362;2023-07-22T14:25:53;6.90;;;3.15;;
71896;SDS011;59767;51.344;12.362;2023-07-22T14:28:58;5.88;;;3.08;;
71896;SDS011;59767;51.344;12.362;2023-07-22T14:32:01;6.45;;;3.08;;
71896;SDS011;59767;51.344;12.362;2023-07-22T14:35:06;7.32;;;3.08;;
71896;SDS011;59767;51.344;12.362;2023-07-22T14:38:11;6.15;;;2.80;;
71896;SDS011;59767;51.344;12.362;2023-07-22T14:41:15;5.55;;;2.70;;
71896;SDS011;59767;51.344;12.362;2023-07-22T14:44:19;7.93;;;3.20;;
71896;SDS011;59767;51.344;12.362;2023-07-22T14:47:23;10.93;;;3.17;;
71896;SDS011;59767;51.344;12.362;2023-07-22T14:50:27;5.85;;;3.15;;
71896;SDS011;59767;51.344;12.362;2023-07-22T14:53:32;13.10;;;3.25;;
71896;SDS011;59767;51.344;12.362;2023-07-22T14:56:36;7.22;;;3.22;;
71896;SDS011;59767;51.344;12.362;2023-07-22T14:59:41;7.72;;;2.97;;
71896;SDS011;59767;51.344;12.362;2023-07-22T15:02:45;6.40;;;3.15;;
71896;SDS011;59767;51.344;12.362;2023-07-22T15:05:49;6.10;;;3.05;;
71896;SDS011;59767;51.344;12.362;2023-07-22T15:08:54;7.32;;;3.17;;
71896;SDS011;59767;51.344;12.362;2023-07-22T15:11:58;5.30;;;2.80;;
71896;SDS011;59767;51.344;12.362;2023-07-22T15:15:02;7.50;;;3.10;;
71896;SDS011;59767;51.344;12.362;2023-07-22T15:18:06;6.68;;;3.17;;
71896;SDS011;59767;51.344;12.362;2023-07-22T15:21:10;9.15;;;3.10;;
71896;SDS011;59767;51.344;12.362;2023-07-22T15:24:14;9.57;;;3.28;;
71896;SDS011;59767;51.344;12.362;2023-07-22T15:27:19;7.38;;;3.05;;
71896;SDS011;59767;51.344;12.362;2023-07-22T15:30:23;5.80;;;3.00;;
71896;SDS011;59767;51.344;12.362;2023-07-22T15:33:27;6.68;;;2.90;;
71896;SDS011;59767;51.344;12.362;2023-07-22T15:36:31;7.40;;;3.30;;
71896;SDS011;59767;51.344;12.362;2023-07-22T15:39:36;6.00;;;3.25;;
71896;SDS011;59767;51.344;12.362;2023-07-22T15:42:40;6.13;;;2.90;;
71896;SDS011;59767;51.344;12.362;2023-07-22T15:45:44;6.25;;;2.90;;
71896;SDS011;59767;51.344;12.362;2023-07-22T15:48:48;9.65;;;3.40;;
71896;SDS011;59767;51.344;12.362;2023-07-22T15:51:53;6.65;;;3.25;;
71896;SDS011;59767;51.344;12.362;2023-07-22T15:54:57;5.88;;;2.80;;
71896;SDS011;59767;51.344;12.362;2023-07-22T15:58:02;7.32;;;2.80;;
71896;SDS011;59767;51.344;12.362;2023-07-22T16:01:06;6.00;;;2.95;;
71896;SDS011;59767;51.344;12.362;2023-07-22T16:04:10;7.10;;;2.97;;
71896;SDS011;59767;51.344;12.362;2023-07-22T16:07:15;6.57;;;3.10;;
71896;SDS011;59767;51.344;12.362;2023-07-22T16:10:20;8.38;;;3.13;;
71896;SDS011;59767;51.344;12.362;2023-07-22T16:13:26;7.63;;;2.95;;
71896;SDS011;59767;51.344;12.362;2023-07-22T16:16:30;7.40;;;3.20;;
71896;SDS011;59767;51.344;12.362;2023-07-22T16:19:35;7.45;;;3.00;;
71896;SDS011;59767;51.344;12.362;2023-07-22T16:22:39;5.68;;;3.17;;
71896;SDS011;59767;51.344;12.362;2023-07-22T16:25:43;8.88;;;3.30;;
71896;SDS011;59767;51.344;12.362;2023-07-22T16:28:49;7.07;;;3.10;;
71896;SDS011;59767;51.344;12.362;2023-07-22T16:31:53;7.95;;;3.22;;
71896;SDS011;59767;51.344;12.362;2023-07-22T16:34:57;9.70;;;3.35;;
71896;SDS011;59767;51.344;12.362;2023-07-22T16:38:01;7.88;;;3.10;;
71896;SDS011;59767;51.344;12.362;2023-07-22T16:41:06;7.78;;;3.20;;
71896;SDS011;59767;51.344;12.362;2023-07-22T16:44:10;6.70;;;2.97;;
71896;SDS011;59767;51.344;12.362;2023-07-22T16:47:14;6.20;;;2.85;;
71896;SDS011;59767;51.344;12.362;2023-07-22T16:50:19;5.32;;;2.92;;
71896;SDS011;59767;51.344;12.362;2023-07-22T16:53:23;7.22;;;3.03;;
71896;SDS011;59767;51.344;12.362;2023-07-22T16:56:27;6.78;;;3.20;;
71896;SDS011;59767;51.344;12.362;2023-07-22T16:59:31;7.00;;;3.10;;
71896;SDS011;59767;51.344;12.362;2023-07-22T17:02:35;5.90;;;3.33;;
71896;SDS011;59767;51.344;12.362;2023-07-22T17:05:40;6.38;;;3.33;;
71896;SDS011;59767;51.344;12.362;2023-07-22T17:08:44;7.50;;;3.42;;
71896;SDS011;59767;51.344;12.362;2023-07-22T17:11:48;7.65;;;3.38;;
71896;SDS011;59767;51.344;12.362;2023-07-22T17:14:53;6.95;;;3.00;;
71896;SDS011;59767;51.344;12.362;2023-07-22T17:17:57;8.13;;;3.13;;
71896;SDS011;59767;51.344;12.362;2023-07-22T17:21:01;8.82;;;4.00;;
71896;SDS011;59767;51.344;12.362;2023-07-22T17:24:05;9.95;;;3.40;;
71896;SDS011;59767;51.344;12.362;2023-07-22T17:27:10;8.45;;;3.30;;
71896;SDS011;59767;51.344;12.362;2023-07-22T17:30:14;8.77;;;3.10;;
71896;SDS011;59767;51.344;12.362;2023-07-22T17:33:19;7.63;;;3.25;;
71896;SDS011;59767;51.344;12.362;2023-07-22T17:36:23;7.47;;;3.38;;
71896;SDS011;59767;51.344;12.362;2023-07-22T17:39:27;9.48;;;3.20;;
71896;SDS011;59767;51.344;12.362;2023-07-22T17:42:31;8.20;;;3.25;;
71896;SDS011;59767;51.344;12.362;2023-07-22T17:45:35;6.53;;;3.50;;
71896;SDS011;59767;51.344;12.362;2023-07-22T17:48:39;6.43;;;3.30;;
71896;SDS011;59767;51.344;12.362;2023-07-22T17:51:43;7.28;;;3.25;;
71896;SDS011;59767;51.344;12.362;2023-07-22T17:54:47;10.38;;;3.50;;
71896;SDS011;59767;51.344;12.362;2023-07-22T17:57:52;7.13;;;3.40;;
71896;SDS011;59767;51.344;12.362;2023-07-22T18:00:56;8.50;;;3.40;;
71896;SDS011;59767;51.344;12.362;2023-07-22T18:04:00;6.30;;;3.50;;
71896;SDS011;59767;51.344;12.362;2023-07-22T18:07:04;7.30;;;3.20;;
71896;SDS011;59767;51.344;12.362;2023-07-22T18:10:08;10.27;;;3.42;;
71896;SDS011;59767;51.344;12.362;2023-07-22T18:13:13;7.38;;;3.40;;
71896;SDS011;59767;51.344;12.362;2023-07-22T18:16:17;9.60;;;3.75;;